Time;durP1;ratioP1;P1;durP2;ratioP2;P2;SDS_P1;SDS_P2;PMS_P1;PMS_P2;Temp;Humidity;BMP_temperature;BMP_pressure;BME280_temperature;BME280_humidity;BME280_pressure;Samples;Min_cycle;Max_cycle;Signal;HPM_P1;HPM_P2
2023/08/27 00:01:13;;;;;;;5.18;1.77;;;15.50;99.90;;;;;;5031343;28;20029;-52
2023/08/27 00:03:39;;;;;;;3.35;1.83;;;15.50;99.90;;;;;;5031105;28;20088;-53
2023/08/27 00:06:04;;;;;;;3.33;1.65;;;15.40;99.90;;;;;;5031404;28;20075;-50
2023/08/27 00:08:30;;;;;;;3.40;1.60;;;15.40;99.90;;;;;;5030955;28;20037;-52
2023/08/27 00:11:00;;;;;;;3.88;2.05;;;15.30;99.90;;;;;;5031302;28;20034;-50
2023/08/27 00:13:25;;;;;;;3.55;1.85;;;15.20;99.90;;;;;;5031292;28;20037;-49
2023/08/27 00:15:51;;;;;;;4.53;1.88;;;15.20;99.90;;;;;;5031203;28;20030;-55
2023/08/27 00:18:17;;;;;;;3.85;2.13;;;15.20;99.90;;;;;;5030728;28;20394;-52
2023/08/27 00:20:46;;;;;;;3.78;1.90;;;15.20;99.90;;;;;;5031068;28;20071;-55
2023/08/27 00:23:11;;;;;;;3.63;1.92;;;15.20;99.90;;;;;;5030849;28;20033;-53
2023/08/27 00:25:38;;;;;;;3.20;1.60;;;15.20;99.90;;;;;;5031018;28;20029;-52
2023/08/27 00:28:04;;;;;;;4.63;1.85;;;15.20;99.90;;;;;;5031292;28;20021;-49
2023/08/27 00:30:29;;;;;;;2.60;1.33;;;15.20;99.90;;;;;;5013389;28;20040;-50
2023/08/27 00:32:55;;;;;;;2.90;1.70;;;15.10;99.90;;;;;;5012824;28;20029;-53
2023/08/27 00:35:21;;;;;;;2.95;1.60;;;15.10;99.90;;;;;;5013018;28;20029;-50
2023/08/27 00:37:47;;;;;;;3.95;1.63;;;15.00;99.90;;;;;;5012994;28;20398;-51
2023/08/27 00:40:13;;;;;;;2.53;1.63;;;14.90;99.90;;;;;;5030839;28;20022;-52
2023/08/27 00:42:39;;;;;;;3.40;1.83;;;14.90;99.90;;;;;;5012828;28;20470;-54
2023/08/27 00:45:06;;;;;;;4.88;1.85;;;14.80;99.90;;;;;;5012953;28;20129;-52
2023/08/27 00:47:35;;;;;;;3.50;2.10;;;14.80;99.90;;;;;;5012828;28;20043;-50
2023/08/27 00:50:02;;;;;;;4.55;2.00;;;14.70;99.90;;;;;;5012701;28;20083;-53
2023/08/27 00:52:28;;;;;;;4.18;2.28;;;14.60;99.90;;;;;;5012363;28;20037;-52
2023/08/27 00:54:55;;;;;;;3.65;1.77;;;14.70;99.90;;;;;;5012774;28;20080;-53
2023/08/27 00:57:21;;;;;;;5.82;2.45;;;14.70;99.90;;;;;;5012767;28;20133;-52
2023/08/27 00:59:48;;;;;;;4.45;1.60;;;14.70;99.90;;;;;;5012504;28;20108;-53
2023/08/27 01:02:15;;;;;;;3.35;1.40;;;14.70;99.90;;;;;;5012488;28;20037;-53
2023/08/27 01:04:40;;;;;;;3.10;1.42;;;14.70;99.90;;;;;;5015395;28;20136;-53
2023/08/27 01:07:22;;;;;;;5.10;1.65;;;14.70;99.90;;;;;;5016746;28;20120;-55
2023/08/27 01:10:07;;;;;;;3.70;1.60;;;14.60;99.90;;;;;;5016649;28;20070;-52
2023/08/27 01:12:42;;;;;;;3.92;1.67;;;14.50;99.90;;;;;;5034217;28;20060;-54
2023/08/27 01:15:08;;;;;;;4.15;2.10;;;14.40;99.90;;;;;;5016683;28;20029;-55
2023/08/27 01:17:36;;;;;;;4.45;2.05;;;14.40;99.90;;;;;;5016659;28;20060;-54
2023/08/27 01:20:05;;;;;;;4.13;1.90;;;14.30;99.90;;;;;;5016361;28;20029;-53
2023/08/27 01:22:30;;;;;;;;;;;14.20;99.90;;;;;;5016842;28;20033;-53
2023/08/27 01:24:56;;;;;;;2.67;1.60;;;14.20;99.90;;;;;;5034192;28;20024;-54
2023/08/27 01:27:29;;;;;;;4.20;2.00;;;14.10;99.90;;;;;;5016376;28;20035;-54
2023/08/27 01:30:14;;;;;;;2.72;1.60;;;14.20;99.90;;;;;;5016466;28;20480;-55
2023/08/27 01:32:52;;;;;;;5.13;1.83;;;14.20;99.90;;;;;;5016103;28;20056;-50
2023/08/27 01:35:18;;;;;;;5.13;1.70;;;14.30;99.90;;;;;;5016436;28;20037;-55
2023/08/27 01:37:44;;;;;;;3.83;2.00;;;14.30;99.90;;;;;;5016649;28;20029;-52
2023/08/27 01:40:10;;;;;;;4.40;2.70;;;14.40;99.90;;;;;;5034075;28;20036;-55
2023/08/27 01:42:36;;;;;;;4.57;1.90;;;14.40;99.90;;;;;;5016266;28;20034;-53
2023/08/27 01:45:06;;;;;;;3.67;2.05;;;14.40;99.90;;;;;;5016217;28;20034;-53
2023/08/27 01:47:32;;;;;;;5.55;2.17;;;14.50;99.90;;;;;;5016096;28;20080;-55
2023/08/27 01:49:58;;;;;;;4.90;1.95;;;14.50;99.90;;;;;;5016177;28;20475;-53
2023/08/27 01:52:23;;;;;;;3.58;1.92;;;14.70;99.90;;;;;;5033586;28;20030;-54
2023/08/27 01:54:49;;;;;;;4.55;1.92;;;14.60;99.90;;;;;;5016124;28;20021;-52
2023/08/27 01:57:15;;;;;;;6.70;2.05;;;14.60;99.90;;;;;;5016201;28;20029;-53
2023/08/27 01:59:40;;;;;;;3.88;1.98;;;14.60;99.90;;;;;;5015764;28;20026;-50
2023/08/27 02:02:07;;;;;;;3.35;2.00;;;14.60;99.90;;;;;;5015799;28;20026;-50
2023/08/27 02:04:33;;;;;;;5.22;1.90;;;14.60;99.90;;;;;;5015902;28;20079;-54
2023/08/27 02:06:59;;;;;;;2.90;1.50;;;14.50;99.90;;;;;;5015907;28;20032;-55
2023/08/27 02:09:25;;;;;;;2.65;1.52;;;14.50;99.90;;;;;;5015758;28;20017;-52
2023/08/27 02:11:52;;;;;;;3.70;2.03;;;14.50;99.90;;;;;;5015860;28;20087;-53
2023/08/27 02:14:18;;;;;;;4.18;2.00;;;14.40;99.90;;;;;;5032973;28;20542;-54
2023/08/27 02:16:44;;;;;;;3.53;1.92;;;14.30;99.90;;;;;;5033710;28;20108;-55
2023/08/27 02:19:09;;;;;;;4.63;1.90;;;14.30;99.90;;;;;;5015615;28;20037;-50
2023/08/27 02:21:35;;;;;;;5.32;2.03;;;14.20;99.90;;;;;;5015630;28;20040;-55
2023/08/27 02:24:01;;;;;;;3.28;2.03;;;14.20;99.90;;;;;;5015722;28;20061;-51
2023/08/27 02:26:26;;;;;;;2.90;1.83;;;14.20;99.90;;;;;;5015988;28;20033;-53
2023/08/27 02:28:53;;;;;;;4.97;2.22;;;14.10;99.90;;;;;;4999327;28;20041;-54
2023/08/27 02:31:19;;;;;;;2.72;1.63;;;14.00;99.90;;;;;;5015683;28;20029;-52
2023/08/27 02:33:45;;;;;;;4.30;2.05;;;14.00;99.90;;;;;;5015586;28;20083;-51
2023/08/27 02:36:10;;;;;;;5.93;2.20;;;13.90;99.90;;;;;;5015637;28;20513;-53
2023/08/27 02:38:36;;;;;;;5.30;2.70;;;13.90;99.90;;;;;;5015451;28;20034;-53
2023/08/27 02:41:02;;;;;;;3.28;2.13;;;13.80;99.90;;;;;;5015554;28;20025;-52
2023/08/27 02:43:28;;;;;;;3.80;1.80;;;13.80;99.90;;;;;;5015331;28;20065;-54
2023/08/27 02:45:53;;;;;;;4.05;2.05;;;13.80;99.90;;;;;;5015450;28;20044;-55
2023/08/27 02:48:19;;;;;;;4.10;2.10;;;13.80;99.90;;;;;;5015345;28;20032;-51
2023/08/27 02:50:45;;;;;;;4.78;2.00;;;13.90;99.90;;;;;;5015305;28;20402;-52
2023/08/27 02:53:10;;;;;;;4.88;1.80;;;13.90;99.90;;;;;;5033188;28;20108;-54
2023/08/27 02:55:36;;;;;;;5.43;2.25;;;13.90;99.90;;;;;;5015339;28;20112;-52
2023/08/27 02:58:02;;;;;;;6.20;2.45;;;13.90;99.90;;;;;;5014971;28;20037;-56
2023/08/27 03:00:29;;;;;;;4.35;2.00;;;13.90;99.90;;;;;;5015200;28;20070;-53
2023/08/27 03:02:54;;;;;;;3.10;1.70;;;13.90;99.90;;;;;;5015029;28;20490;-56
2023/08/27 03:05:20;;;;;;;4.00;1.75;;;13.80;99.90;;;;;;5015013;28;20044;-55
2023/08/27 03:07:46;;;;;;;4.90;2.10;;;13.70;99.90;;;;;;5014922;28;20033;-56
2023/08/27 03:10:16;;;;;;;5.97;2.38;;;13.70;99.90;;;;;;5014898;28;20404;-54
2023/08/27 03:12:42;;;;;;;5.78;2.20;;;13.70;99.90;;;;;;5014567;28;20112;-50
2023/08/27 03:15:07;;;;;;;3.53;2.08;;;13.70;99.90;;;;;;5014849;28;20525;-52
2023/08/27 03:17:33;;;;;;;3.53;1.80;;;13.80;99.90;;;;;;5014671;28;20494;-51
2023/08/27 03:19:59;;;;;;;3.40;1.95;;;13.80;99.90;;;;;;5032289;28;20109;-55
2023/08/27 03:22:26;;;;;;;5.20;2.15;;;13.80;99.90;;;;;;5014456;28;20112;-54
2023/08/27 03:24:54;;;;;;;3.75;2.08;;;13.80;99.90;;;;;;5014429;28;20514;-56
2023/08/27 03:27:20;;;;;;;4.93;2.17;;;14.00;99.90;;;;;;5013684;28;20083;-54
2023/08/27 03:29:45;;;;;;;3.67;1.90;;;14.00;99.90;;;;;;5014172;28;20482;-55
2023/08/27 03:32:13;;;;;;;5.15;2.38;;;14.00;99.90;;;;;;5014015;28;20116;-53
2023/08/27 03:34:39;;;;;;;4.78;2.22;;;13.90;99.90;;;;;;5014106;28;20553;-55
2023/08/27 03:37:05;;;;;;;3.58;2.05;;;13.80;99.90;;;;;;5014348;28;20121;-55
2023/08/27 03:39:30;;;;;;;4.65;2.05;;;13.90;99.90;;;;;;5031726;28;20057;-56
2023/08/27 03:41:56;;;;;;;3.95;2.55;;;13.90;99.90;;;;;;5014417;28;20036;-54
2023/08/27 03:44:24;;;;;;;4.93;1.95;;;13.90;99.90;;;;;;5013891;28;20079;-50
2023/08/27 03:46:50;;;;;;;4.20;1.95;;;13.90;99.90;;;;;;5013978;28;20026;-55
2023/08/27 03:49:15;;;;;;;3.67;1.80;;;13.90;99.90;;;;;;5013994;28;20042;-52
2023/08/27 03:51:43;;;;;;;3.50;1.92;;;13.90;99.90;;;;;;5013780;28;20486;-53
2023/08/27 03:54:08;;;;;;;8.02;1.98;;;13.90;99.90;;;;;;5013749;28;20040;-54
2023/08/27 03:56:34;;;;;;;3.47;1.42;;;13.90;99.90;;;;;;5014003;28;20033;-56
2023/08/27 03:59:02;;;;;;;4.75;1.80;;;13.90;99.90;;;;;;5013688;28;20029;-51
2023/08/27 04:01:27;;;;;;;4.65;1.85;;;13.80;99.90;;;;;;5013721;28;20696;-51
2023/08/27 04:03:54;;;;;;;4.57;1.90;;;13.80;99.90;;;;;;5013537;28;20033;-56
2023/08/27 04:06:21;;;;;;;5.95;2.03;;;13.80;99.90;;;;;;5013632;28;20037;-55
2023/08/27 04:08:46;;;;;;;3.05;1.75;;;13.90;99.90;;;;;;5031116;28;20110;-50
2023/08/27 04:11:12;;;;;;;4.35;1.77;;;13.90;99.90;;;;;;5013566;28;20032;-53
2023/08/27 04:13:38;;;;;;;3.72;1.80;;;13.90;99.90;;;;;;5013147;28;20034;-52
2023/08/27 04:16:10;;;;;;;3.40;1.70;;;14.00;99.90;;;;;;5013625;28;20414;-55
2023/08/27 04:18:36;;;;;;;3.75;2.08;;;14.00;99.90;;;;;;5013118;28;20040;-53
2023/08/27 04:21:02;;;;;;;3.05;1.63;;;14.00;99.90;;;;;;5013427;28;20029;-50
2023/08/27 04:23:28;;;;;;;2.88;1.77;;;14.00;99.90;;;;;;5013325;28;20040;-55
2023/08/27 04:25:54;;;;;;;2.53;1.67;;;14.00;99.90;;;;;;5013369;28;20391;-52
2023/08/27 04:28:20;;;;;;;4.28;1.85;;;14.00;99.90;;;;;;5030773;28;20473;-53
2023/08/27 04:30:50;;;;;;;3.00;1.70;;;13.90;99.90;;;;;;5013375;28;20320;-52
2023/08/27 04:33:16;;;;;;;3.40;1.98;;;14.00;99.90;;;;;;5012841;28;20029;-52
2023/08/27 04:35:44;;;;;;;2.83;1.88;;;13.90;99.90;;;;;;5013055;28;20034;-52
2023/08/27 04:38:10;;;;;;;5.07;2.03;;;13.90;99.90;;;;;;5013134;28;20046;-54
2023/08/27 04:40:36;;;;;;;3.50;2.13;;;13.90;99.90;;;;;;5013098;28;20057;-55
2023/08/27 04:43:02;;;;;;;7.72;2.50;;;14.00;99.90;;;;;;5012808;28;20083;-52
2023/08/27 04:45:28;;;;;;;3.83;2.03;;;14.00;99.90;;;;;;5013229;28;20033;-54
2023/08/27 04:47:54;;;;;;;2.85;1.63;;;14.00;99.90;;;;;;5012337;28;20025;-55
2023/08/27 04:50:20;;;;;;;3.85;1.63;;;14.00;99.90;;;;;;5012751;28;20095;-52
2023/08/27 04:52:45;;;;;;;4.13;1.80;;;14.00;99.90;;;;;;5012785;28;20045;-54
2023/08/27 04:55:11;;;;;;;3.92;1.75;;;13.90;99.90;;;;;;5030221;28;20036;-54
2023/08/27 04:57:37;;;;;;;6.18;1.90;;;14.00;99.90;;;;;;5012155;28;20470;-54
2023/08/27 05:00:07;;;;;;;5.13;1.80;;;14.00;99.90;;;;;;5012419;28;20026;-53
2023/08/27 05:02:33;;;;;;;4.00;1.83;;;14.10;99.90;;;;;;5012250;28;20029;-53
2023/08/27 05:04:59;;;;;;;3.40;1.40;;;14.10;99.90;;;;;;5012207;28;20026;-52
2023/08/27 05:07:24;;;;;;;2.70;1.88;;;14.20;99.90;;;;;;5012747;28;20508;-53
2023/08/27 05:09:53;;;;;;;2.63;1.58;;;14.20;99.90;;;;;;5012592;28;20398;-55
2023/08/27 05:12:19;;;;;;;2.97;1.50;;;14.30;99.90;;;;;;5030159;28;20037;-55
2023/08/27 05:14:44;;;;;;;2.83;1.42;;;14.50;99.90;;;;;;5012615;28;20095;-53
2023/08/27 05:17:10;;;;;;;3.45;1.52;;;14.50;99.90;;;;;;5030735;28;20057;-51
2023/08/27 05:19:36;;;;;;;3.33;1.58;;;14.60;99.90;;;;;;5011377;28;20025;-52
2023/08/27 05:22:03;;;;;;;2.88;1.50;;;14.70;99.90;;;;;;5012308;28;20481;-50
2023/08/27 05:24:28;;;;;;;3.05;1.50;;;14.70;99.90;;;;;;5029058;28;20033;-52
2023/08/27 05:26:54;;;;;;;3.95;1.45;;;14.70;99.90;;;;;;5012441;28;20037;-54
2023/08/27 05:29:20;;;;;;;4.10;1.58;;;14.70;99.90;;;;;;5012185;28;20108;-50
2023/08/27 05:31:45;;;;;;;3.17;1.40;;;14.70;99.90;;;;;;5012389;28;20506;-50
2023/08/27 05:34:11;;;;;;;3.97;1.48;;;14.70;99.90;;;;;;5012366;28;20481;-52
2023/08/27 05:36:37;;;;;;;3.65;1.52;;;14.80;99.90;;;;;;5012633;28;20297;-52
2023/08/27 05:39:04;;;;;;;2.42;1.70;;;14.80;99.90;;;;;;5012200;28;20033;-53
2023/08/27 05:41:30;;;;;;;3.72;1.90;;;14.80;99.90;;;;;;5012202;28;20371;-51
2023/08/27 05:43:56;;;;;;;3.08;1.65;;;14.80;99.90;;;;;;5012412;28;20039;-50
2023/08/27 05:46:21;;;;;;;4.03;1.80;;;14.80;99.90;;;;;;5030087;28;20030;-51
2023/08/27 05:48:47;;;;;;;5.72;1.80;;;14.80;99.90;;;;;;5012201;28;20444;-50
2023/08/27 05:51:13;;;;;;;2.90;2.05;;;14.80;99.90;;;;;;5015842;28;20053;-50
2023/08/27 05:53:39;;;;;;;4.50;2.30;;;14.80;99.90;;;;;;5015468;28;20035;-50
2023/08/27 05:56:05;;;;;;;5.80;2.55;;;14.90;99.90;;;;;;5015879;28;20112;-51
2023/08/27 05:58:31;;;;;;;4.03;2.13;;;14.90;99.90;;;;;;5015853;28;20267;-52
2023/08/27 06:00:57;;;;;;;4.57;2.10;;;14.90;99.90;;;;;;5015823;28;20022;-51
2023/08/27 06:03:23;;;;;;;3.88;2.22;;;14.90;99.90;;;;;;5015541;28;20494;-52
2023/08/27 06:05:49;;;;;;;4.18;2.10;;;15.00;99.90;;;;;;5015838;28;20076;-50
2023/08/27 06:08:15;;;;;;;4.75;2.00;;;15.00;99.90;;;;;;5033402;28;20068;-51
2023/08/27 06:10:40;;;;;;;4.03;2.10;;;15.00;99.90;;;;;;5015181;28;20428;-50
2023/08/27 06:13:07;;;;;;;6.30;2.10;;;15.10;99.90;;;;;;5015350;28;20086;-52
2023/08/27 06:15:37;;;;;;;6.90;2.25;;;15.10;99.90;;;;;;5015542;28;20061;-50
2023/08/27 06:18:04;;;;;;;3.88;2.13;;;15.10;99.90;;;;;;5015185;28;20040;-51
2023/08/27 06:20:30;;;;;;;3.08;1.80;;;15.10;99.90;;;;;;5033485;28;20467;-53
2023/08/27 06:22:56;;;;;;;4.78;3.13;;;15.10;99.90;;;;;;5015379;28;20057;-52
2023/08/27 06:25:22;;;;;;;7.93;3.42;;;15.10;99.90;;;;;;5015452;28;20144;-54
2023/08/27 06:27:48;;;;;;;4.70;2.03;;;15.20;99.90;;;;;;5015376;28;20038;-51
2023/08/27 06:30:14;;;;;;;5.03;2.42;;;15.20;99.90;;;;;;4998973;28;20034;-54
2023/08/27 06:32:41;;;;;;;5.28;2.38;;;15.20;99.90;;;;;;5014952;28;20032;-54
2023/08/27 06:35:09;;;;;;;3.22;2.20;;;15.20;99.90;;;;;;5015444;28;20033;-54
2023/08/27 06:37:35;;;;;;;5.75;2.35;;;15.30;99.90;;;;;;5015237;28;20052;-56
2023/08/27 06:40:00;;;;;;;4.53;2.45;;;15.30;99.90;;;;;;5015037;28;20029;-50
2023/08/27 06:42:27;;;;;;;4.65;2.00;;;15.30;99.90;;;;;;5032633;28;20030;-52
2023/08/27 06:44:52;;;;;;;4.22;1.88;;;15.40;99.90;;;;;;5014920;28;20494;-54
2023/08/27 06:47:18;;;;;;;3.65;1.60;;;15.40;99.90;;;;;;5015011;28;20397;-55
2023/08/27 06:49:44;;;;;;;5.00;2.08;;;15.40;99.90;;;;;;5014812;28;20482;-54
2023/08/27 06:52:09;;;;;;;5.90;2.15;;;15.50;99.90;;;;;;5014916;28;20040;-51
2023/08/27 06:54:35;;;;;;;5.00;1.98;;;15.50;99.90;;;;;;5032598;28;20026;-56
2023/08/27 06:57:02;;;;;;;4.60;1.73;;;15.60;99.90;;;;;;4998718;28;20029;-55
2023/08/27 06:59:27;;;;;;;4.45;1.65;;;15.60;99.90;;;;;;5014738;28;20028;-51
2023/08/27 07:01:53;;;;;;;4.97;2.30;;;15.60;99.90;;;;;;5031247;28;20021;-51
2023/08/27 07:04:19;;;;;;;6.95;3.00;;;15.60;99.90;;;;;;5014736;28;20038;-50
2023/08/27 07:06:45;;;;;;;4.60;2.10;;;15.70;99.90;;;;;;5032514;28;20036;-51
2023/08/27 07:09:11;;;;;;;5.22;2.33;;;15.70;99.90;;;;;;5014404;28;20055;-50
2023/08/27 07:11:38;;;;;;;6.32;2.40;;;15.80;99.90;;;;;;5014449;28;20037;-51
2023/08/27 07:14:04;;;;;;;5.40;2.10;;;15.90;99.90;;;;;;5014212;28;20033;-53
2023/08/27 07:16:30;;;;;;;3.72;2.08;;;16.10;99.90;;;;;;5014800;28;20036;-52
2023/08/27 07:18:55;;;;;;;4.00;2.03;;;16.20;99.90;;;;;;5032088;28;20029;-52
2023/08/27 07:21:21;;;;;;;6.43;2.10;;;16.10;99.90;;;;;;5014293;28;20025;-54
2023/08/27 07:23:47;;;;;;;5.78;2.10;;;16.20;99.90;;;;;;5014137;28;20405;-51
2023/08/27 07:26:12;;;;;;;3.40;1.88;;;16.20;99.90;;;;;;5014289;28;20035;-54
2023/08/27 07:28:38;;;;;;;5.50;2.50;;;16.30;99.90;;;;;;5014009;28;20033;-53
2023/08/27 07:31:04;;;;;;;2.78;1.50;;;16.40;99.90;;;;;;5014147;28;20032;-51
2023/08/27 07:33:32;;;;;;;4.03;1.88;;;16.50;99.90;;;;;;5013842;28;20041;-54
2023/08/27 07:35:57;;;;;;;3.53;1.80;;;16.50;99.90;;;;;;5031789;28;20033;-49
2023/08/27 07:38:26;;;;;;;3.17;1.80;;;16.60;99.90;;;;;;5031664;28;20044;-50
2023/08/27 07:40:52;;;;;;;4.50;1.80;;;16.70;99.90;;;;;;5031915;28;20474;-51
2023/08/27 07:43:18;;;;;;;4.00;1.83;;;16.80;99.90;;;;;;5013593;28;20088;-50
2023/08/27 07:45:44;;;;;;;5.50;2.63;;;16.80;99.90;;;;;;5013957;28;20085;-50
2023/08/27 07:48:09;;;;;;;16.33;8.15;;;16.80;99.90;;;;;;5013749;28;20250;-52
2023/08/27 07:50:35;;;;;;;6.05;2.80;;;16.90;99.90;;;;;;5012465;28;20037;-49
2023/08/27 07:53:01;;;;;;;4.35;2.00;;;17.10;99.90;;;;;;5012027;28;20032;-51
2023/08/27 07:55:31;;;;;;;4.47;2.55;;;17.10;99.90;;;;;;5011949;28;20492;-51
2023/08/27 07:57:58;;;;;;;4.63;2.47;;;17.10;99.90;;;;;;5013254;28;20029;-52
2023/08/27 08:00:24;;;;;;;5.13;2.38;;;17.20;99.90;;;;;;5013787;28;20112;-54
2023/08/27 08:02:49;;;;;;;5.57;2.47;;;17.10;99.90;;;;;;5012293;28;20124;-53
2023/08/27 08:05:15;;;;;;;5.30;2.50;;;17.20;99.90;;;;;;5031315;28;20040;-52
2023/08/27 08:07:42;;;;;;;4.05;2.17;;;17.20;99.90;;;;;;5031212;28;20034;-52
2023/08/27 08:10:08;;;;;;;4.93;1.95;;;17.20;99.90;;;;;;5030912;28;20115;-53
2023/08/27 08:12:33;;;;;;;4.00;1.75;;;17.40;99.90;;;;;;5030347;28;20502;-54
2023/08/27 08:14:59;;;;;;;6.07;1.70;;;17.70;99.90;;;;;;5031221;28;20026;-53
2023/08/27 08:17:25;;;;;;;2.58;1.50;;;17.80;99.90;;;;;;5030975;28;20397;-53
2023/08/27 08:19:51;;;;;;;4.38;1.80;;;18.10;99.90;;;;;;5031301;28;20042;-52
2023/08/27 08:22:17;;;;;;;2.67;1.40;;;18.20;99.90;;;;;;5030779;28;20030;-55
2023/08/27 08:24:43;;;;;;;2.25;1.25;;;18.30;99.90;;;;;;5030935;28;20025;-55
2023/08/27 08:27:08;;;;;;;3.60;1.25;;;18.40;99.90;;;;;;5013313;28;20029;-54
2023/08/27 08:29:34;;;;;;;3.30;1.17;;;18.40;99.90;;;;;;5030735;28;20471;-53
2023/08/27 08:32:00;;;;;;;2.83;1.50;;;18.40;99.90;;;;;;5031256;28;20029;-51
2023/08/27 08:34:29;;;;;;;2.25;1.50;;;18.40;99.90;;;;;;5030805;28;20368;-53
2023/08/27 08:36:56;;;;;;;3.15;1.13;;;18.40;99.90;;;;;;5030846;28;20033;-55
2023/08/27 08:39:23;;;;;;;17.15;8.85;;;18.40;99.90;;;;;;5030716;28;20030;-53
2023/08/27 08:42:17;;;;;;;3.60;1.85;;;18.40;99.90;;;;;;5030648;28;20033;-52
2023/08/27 08:44:56;;;;;;;8.52;3.85;;;18.40;99.90;;;;;;5030744;28;20100;-49
2023/08/27 08:47:25;;;;;;;3.95;1.77;;;18.30;99.90;;;;;;5031216;28;20402;-53
2023/08/27 08:49:56;;;;;;;6.80;2.42;;;18.30;99.90;;;;;;5030615;28;20033;-54
2023/08/27 08:52:26;;;;;;;2.85;1.30;;;18.30;99.90;;;;;;5030484;28;20478;-51
2023/08/27 08:54:54;;;;;;;2.80;1.55;;;18.30;99.90;;;;;;5030778;28;20026;-53
2023/08/27 08:57:23;;;;;;;3.97;1.80;;;18.20;99.90;;;;;;5013270;28;20317;-53
2023/08/27 08:59:49;;;;;;;5.22;1.80;;;18.20;99.90;;;;;;5030796;28;20104;-54
2023/08/27 09:02:15;;;;;;;1.95;1.10;;;18.20;99.90;;;;;;5030711;28;20105;-53
2023/08/27 09:04:42;;;;;;;3.90;1.55;;;18.30;99.90;;;;;;5030860;28;20092;-52
2023/08/27 09:07:08;;;;;;;5.45;1.42;;;18.40;99.90;;;;;;5031109;28;20478;-53
2023/08/27 09:09:35;;;;;;;2.88;1.30;;;18.40;99.90;;;;;;5030736;28;20397;-54
2023/08/27 09:12:02;;;;;;;4.47;1.40;;;18.60;99.90;;;;;;5030487;28;20064;-53
2023/08/27 09:14:29;;;;;;;2.88;1.33;;;18.80;99.90;;;;;;5012857;28;20033;-53
2023/08/27 09:16:55;;;;;;;6.10;3.25;;;18.80;99.90;;;;;;5031117;28;20021;-54
2023/08/27 09:19:21;;;;;;;3.53;2.20;;;18.90;99.90;;;;;;5030309;28;20441;-52
2023/08/27 09:21:47;;;;;;;4.38;2.05;;;19.00;99.90;;;;;;5030312;28;20056;-54
2023/08/27 09:24:12;;;;;;;5.05;2.40;;;19.20;99.90;;;;;;5030342;28;20044;-53
2023/08/27 09:26:38;;;;;;;6.53;2.40;;;19.20;99.90;;;;;;5000398;28;20034;-54
2023/08/27 09:29:07;;;;;;;4.80;2.55;;;19.10;99.90;;;;;;5034190;28;20124;-54
2023/08/27 09:31:44;;;;;;;2.63;1.30;;;19.10;99.90;;;;;;5034238;28;20045;-51
2023/08/27 09:34:12;;;;;;;3.38;2.00;;;19.00;99.90;;;;;;5016465;28;20040;-52
2023/08/27 09:36:38;;;;;;;3.13;1.50;;;19.00;99.90;;;;;;5034285;28;20029;-52
2023/08/27 09:39:12;;;;;;;3.15;1.17;;;19.00;99.90;;;;;;5034113;28;20755;-50
2023/08/27 09:41:42;;;;;;;1.88;1.17;;;19.10;99.90;;;;;;5033959;28;20042;-52
2023/08/27 09:44:08;;;;;;;3.53;1.38;;;19.20;99.90;;;;;;5033934;28;20029;-49
2023/08/27 09:46:35;;;;;;;2.17;1.30;;;19.40;99.90;;;;;;5034250;28;20478;-52
2023/08/27 09:49:05;;;;;;;3.10;1.05;;;19.60;99.90;;;;;;5033863;28;20033;-49
2023/08/27 09:51:35;;;;;;;3.03;0.90;;;19.80;99.90;;;;;;5033691;28;20029;-50
2023/08/27 09:54:11;;;;;;;1.70;1.00;;;19.90;99.90;;;;;;5033587;28;20191;-51
2023/08/27 09:56:37;;;;;;;3.40;1.05;;;19.90;99.90;;;;;;5033785;28;20021;-54
2023/08/27 09:59:05;;;;;;;2.00;0.93;;;19.80;99.90;;;;;;5033853;28;20519;-53
2023/08/27 10:01:34;;;;;;;3.67;1.00;;;19.70;99.90;;;;;;5033554;28;20068;-51
2023/08/27 10:04:09;;;;;;;1.90;1.20;;;19.60;99.90;;;;;;5015835;28;20483;-50
2023/08/27 10:06:38;;;;;;;2.97;1.20;;;19.60;99.90;;;;;;5033706;28;20539;-53
2023/08/27 10:09:04;;;;;;;2.13;1.00;;;19.60;99.90;;;;;;5033307;28;20470;-51
2023/08/27 10:11:31;;;;;;;2.90;0.98;;;19.60;99.90;;;;;;5033570;28;20044;-53
2023/08/27 10:13:58;;;;;;;3.42;1.10;;;19.60;99.90;;;;;;5033392;28;20379;-50
2023/08/27 10:16:24;;;;;;;4.93;1.42;;;19.50;99.90;;;;;;5033472;28;20029;-51
2023/08/27 10:18:51;;;;;;;1.67;0.75;;;19.40;99.90;;;;;;5015461;28;20132;-49
2023/08/27 10:21:18;;;;;;;2.67;1.05;;;19.50;99.90;;;;;;5033149;28;20036;-50
2023/08/27 10:23:44;;;;;;;3.67;1.42;;;19.70;99.90;;;;;;5033076;28;20033;-51
2023/08/27 10:26:10;;;;;;;3.78;0.70;;;20.00;99.90;;;;;;5033386;28;20490;-52
2023/08/27 10:28:36;;;;;;;4.03;1.00;;;20.30;99.90;;;;;;5033026;28;20026;-50
2023/08/27 10:31:05;;;;;;;2.65;0.93;;;20.40;99.90;;;;;;5033256;28;20124;-49
2023/08/27 10:33:31;;;;;;;2.88;0.93;;;20.40;99.90;;;;;;5032715;28;20049;-52
2023/08/27 10:36:02;;;;;;;2.75;0.90;;;20.20;99.90;;;;;;5032699;28;20060;-52
2023/08/27 10:38:31;;;;;;;2.72;0.80;;;20.30;99.90;;;;;;5032913;28;20486;-49
2023/08/27 10:40:57;;;;;;;2.35;0.80;;;20.40;99.90;;;;;;5032950;28;20501;-52
2023/08/27 10:43:23;;;;;;;2.70;0.80;;;20.60;99.90;;;;;;5032526;28;20029;-52
2023/08/27 10:45:49;;;;;;;1.52;0.80;;;20.70;99.90;;;;;;5032898;28;20039;-52
2023/08/27 10:48:18;;;;;;;1.67;0.70;;;20.80;99.90;;;;;;5032651;28;20105;-52
2023/08/27 10:50:47;;;;;;;4.70;1.05;;;21.10;99.90;;;;;;5032681;28;20033;-50
2023/08/27 10:53:13;;;;;;;3.33;1.05;;;21.10;99.90;;;;;;5032569;28;20032;-49
2023/08/27 10:55:43;;;;;;;2.72;0.75;;;21.20;99.90;;;;;;5032800;28;20128;-53
2023/08/27 10:58:16;;;;;;;1.58;0.88;;;21.30;99.90;;;;;;5032739;28;20501;-51
2023/08/27 11:00:56;;;;;;;2.17;0.70;;;21.20;99.90;;;;;;5032683;28;20033;-52
2023/08/27 11:03:22;;;;;;;2.15;1.02;;;21.10;99.90;;;;;;5032188;28;20069;-51
2023/08/27 11:06:11;;;;;;;3.67;1.15;;;21.00;99.90;;;;;;5032620;28;20053;-50
2023/08/27 11:08:37;;;;;;;3.53;1.45;;;21.00;99.90;;;;;;5032349;28;20042;-52
2023/08/27 11:11:13;;;;;;;3.65;1.88;;;20.90;99.90;;;;;;5032569;28;20129;-51
2023/08/27 11:13:42;;;;;;;2.13;0.80;;;20.90;99.90;;;;;;5014155;28;20036;-52
2023/08/27 11:16:11;;;;;;;;;;;21.10;99.90;;;;;;5032872;28;20440;-51
2023/08/27 11:18:53;;;;;;;1.60;0.70;;;21.10;99.90;;;;;;5031980;28;19913;-51
2023/08/27 11:21:24;;;;;;;1.98;0.98;;;21.30;99.90;;;;;;5032303;28;20645;-55
2023/08/27 11:24:28;;;;;;;2.60;1.10;;;21.40;99.90;;;;;;5032058;28;20103;-53
2023/08/27 11:26:54;;;;;;;1.48;0.75;;;21.30;99.90;;;;;;4990340;28;20495;-52
2023/08/27 11:29:23;;;;;;;0.77;0.50;;;21.10;99.90;;;;;;4990217;28;20038;-53
2023/08/27 11:31:49;;;;;;;4.07;1.38;;;20.70;99.90;;;;;;5010347;28;20120;-53
2023/08/27 11:34:15;;;;;;;1.42;0.73;;;20.60;99.90;;;;;;5031834;28;20041;-53
2023/08/27 11:36:46;;;;;;;1.63;0.65;;;20.70;99.90;;;;;;5031911;28;20029;-52
2023/08/27 11:39:14;;;;;;;2.30;0.88;;;20.80;99.90;;;;;;5014032;28;20033;-54
2023/08/27 11:41:44;;;;;;;2.80;0.93;;;20.90;99.90;;;;;;5031740;28;20382;-51
2023/08/27 11:44:10;;;;;;;4.70;1.67;;;21.10;99.90;;;;;;5031668;28;20029;-54
2023/08/27 11:46:37;;;;;;;1.65;0.90;;;21.40;99.90;;;;;;5031834;28;20026;-52
2023/08/27 11:49:05;;;;;;;4.43;1.00;;;21.50;99.90;;;;;;5030927;28;20075;-55
2023/08/27 11:51:32;;;;;;;2.20;0.57;;;21.40;99.90;;;;;;5031494;28;20044;-55
2023/08/27 11:53:58;;;;;;;2.15;0.77;;;21.50;99.90;;;;;;5031717;28;20041;-51
2023/08/27 11:56:25;;;;;;;1.83;0.80;;;21.40;99.90;;;;;;5031580;28;20021;-54
2023/08/27 11:58:52;;;;;;;2.83;0.90;;;21.40;99.90;;;;;;5031796;28;20036;-55
2023/08/27 12:01:22;;;;;;;4.22;0.90;;;21.40;99.90;;;;;;5031660;28;20025;-55
2023/08/27 12:03:48;;;;;;;3.50;0.70;;;21.50;99.90;;;;;;5031255;28;20029;-53
2023/08/27 12:06:17;;;;;;;3.05;0.90;;;21.70;99.90;;;;;;5031427;28;20123;-50
2023/08/27 12:08:47;;;;;;;1.30;0.93;;;21.70;99.60;;;;;;5031246;28;20160;-49
2023/08/27 12:11:13;;;;;;;1.83;0.60;;;21.60;99.40;;;;;;5031750;28;20052;-51
2023/08/27 12:13:39;;;;;;;1.90;1.02;;;21.50;99.90;;;;;;5031406;28;20021;-50
2023/08/27 12:16:05;;;;;;;1.67;0.60;;;21.60;99.90;;;;;;5031489;28;20033;-50
2023/08/27 12:18:34;;;;;;;1.60;0.73;;;21.80;99.90;;;;;;5031223;28;20037;-49
2023/08/27 12:21:06;;;;;;;1.38;0.80;;;21.70;99.90;;;;;;5031493;28;20025;-50
2023/08/27 12:23:33;;;;;;;2.72;0.60;;;21.70;98.90;;;;;;5031058;28;20033;-55
2023/08/27 12:26:01;;;;;;;2.28;0.77;;;21.60;98.70;;;;;;5031331;28;20120;-52
2023/08/27 12:28:27;;;;;;;1.25;0.55;;;21.60;98.30;;;;;;5031046;28;20485;-50
2023/08/27 12:30:54;;;;;;;1.58;0.70;;;21.60;98.40;;;;;;5031046;28;20030;-50
2023/08/27 12:33:20;;;;;;;2.30;0.90;;;21.50;99.10;;;;;;5030718;28;20528;-53
2023/08/27 12:35:47;;;;;;;2.33;0.93;;;21.50;99.90;;;;;;5031005;28;20432;-53
2023/08/27 12:38:13;;;;;;;2.58;0.80;;;21.40;99.90;;;;;;5031117;28;20036;-51
2023/08/27 12:40:39;;;;;;;2.60;0.85;;;21.40;99.90;;;;;;5031419;28;20053;-52
2023/08/27 12:43:05;;;;;;;3.72;0.75;;;21.30;99.90;;;;;;5030679;28;20155;-51
2023/08/27 12:45:30;;;;;;;3.13;0.80;;;21.20;99.90;;;;;;5030730;28;20030;-52
2023/08/27 12:47:56;;;;;;;2.13;0.90;;;21.10;99.90;;;;;;5030783;28;20084;-53